Flight Track Log - Related Links

Times and Time Zones

All times are in EDT time to prevent confusion due to time zone crossing. See the N66SG flight status page for this flight to view local times or setup timezone preferences in your user account.

Time Position Orientation Groundspeed Altitude Reporting Facility
EDT Latitude Longitude Course Direction KTS MPH feet Rate Location/Type
Thu 01:53:34 PM 42.6653 -83.4014 83° East 168 193 1,700  Level Cleveland Center
Thu 01:55:00 PM 42.6767 -83.2831 83° East 260 299 6,000 3,123 Climbing Cleveland Center
Thu 01:56:00 PM 42.6872 -83.1792 82° East 265 305 9,300 3,250 Climbing Cleveland Center
Thu 01:57:00 PM 42.6497 -83.0928 121° Southeast 262 302 12,500 2,800 Climbing Cleveland Center
Thu 01:58:00 PM 42.5925 -83.0369 144° Southeast 271 312 14,900 2,750 Climbing Cleveland Center
Thu 01:59:00 PM 42.5169 -82.9550 141° Southeast 290 334 18,000 2,950 Climbing Cleveland Center
Thu 02:00:00 PM 42.4458 -82.8736 140° Southeast 321 369 20,800 2,900 Climbing Cleveland Center
Thu 02:01:00 PM 42.3786 -82.7925 138° Southeast 328 377 23,800 3,000 Climbing Cleveland Center
Thu 02:02:00 PM 42.3092 -82.7058 137° Southeast 328 377 26,800 3,000 Climbing Cleveland Center
Thu 02:03:00 PM 42.2442 -82.6250 137° Southeast 328 377 29,800 2,800 Climbing Cleveland Center
Thu 02:04:00 PM 42.1767 -82.5444 138° Southeast 328 377 32,400 1,600 Climbing Cleveland Center
Thu 02:05:00 PM 42.0989 -82.4608 141° Southeast 340 391 33,000 300 Climbing Cleveland Center
Thu 02:06:00 PM 42.0511 -82.3225 115° Southeast 375 432 33,000  Level Cleveland Center
Thu 02:07:00 PM 42.0075 -82.1647 110° East 410 472 33,000  Level Cleveland Center
Thu 02:08:00 PM 41.9681 -81.9878 107° East 444 511 33,000  Level Cleveland Center
Thu 02:09:00 PM 41.9283 -81.8222 108° East 459 528 33,000  Level Cleveland Center
Thu 02:10:00 PM 41.8922 -81.6739 108° East 464 534 33,000  Level Cleveland Center
Thu 02:11:00 PM 41.8519 -81.5114 108° East 469 540 33,000  Level Cleveland Center
Thu 02:12:00 PM 41.8114 -81.3464 108° East 469 540 33,000  Level Cleveland Center
Thu 02:13:00 PM 41.7708 -81.1817 108° East 469 540 33,000  Level Cleveland Center
Thu 02:14:00 PM 41.7297 -81.0144 108° East 464 534 33,000  Level Cleveland Center
Thu 02:15:00 PM 41.6844 -80.8361 109° East 469 540 33,000 -50 Level Cleveland Center
Thu 02:16:00 PM 41.6411 -80.6747 110° East 464 534 32,900 -400 Descending Cleveland Center
Thu 02:17:00 PM 41.5994 -80.5136 109° East 459 528 32,200 -900 Descending Cleveland Center
Thu 02:18:00 PM 41.5575 -80.3556 109° East 453 521 31,100 -1,100 Descending Cleveland Center
Thu 02:19:00 PM 41.5194 -80.1950 108° East 453 521 30,000 -1,100 Descending Cleveland Center
Thu 02:20:00 PM 41.4875 -80.0372 105° East 448 516 28,900 -1,150 Descending Cleveland Center
Thu 02:21:00 PM 41.4783 -79.8736 94° East 437 503 27,700 -1,350 Descending Cleveland Center
Thu 02:22:00 PM 41.4753 -79.7103 91° East 437 503 26,200 -1,500 Descending Cleveland Center
Thu 02:23:00 PM 41.4572 -79.5525 99° East 437 503 24,700 -1,100 Descending Cleveland Center
Thu 02:24:00 PM 41.4036 -79.4067 116° Southeast 425 489 24,000 -1,050 Descending Cleveland Center
Thu 02:25:00 PM 41.3542 -79.2636 115° Southeast 425 489 22,600 -1,450 Descending Cleveland Center
Thu 02:26:00 PM 41.3089 -79.1347 115° Southeast 430 495 21,100 -1,500 Descending Cleveland Center
Thu 02:27:00 PM 41.2633 -79.0003 114° Southeast 420 483 19,600 -1,550 Descending Cleveland Center
Thu 02:28:00 PM 41.2194 -78.8633 113° Southeast 409 471 18,000 -1,696 Descending Cleveland Center
Thu 02:30:11 PM 41.1136 -78.5600 115° Southeast 400 460 14,200 -1,714 Descending New York Center
Thu 02:31:09 PM 41.0539 -78.4542 127° Southeast 400 460 12,600 -1,714 Descending New York Center
Thu 02:32:10 PM 40.9942 -78.3456 126° Southeast 386 444 10,800 -1,587 Descending New York Center
Thu 02:33:10 PM 40.9436 -78.2547 126° Southeast 348 400 9,400 -1,750 Descending New York Center
Thu 02:34:10 PM 40.8989 -78.1731 126° Southeast 303 349 7,300 -2,000 Descending New York Center
Thu 02:35:10 PM 40.8597 -78.0975 124° Southeast 269 310 5,400 -1,587 Descending New York Center
Thu 02:36:11 PM 40.8203 -78.0272 127° Southeast 248 285 4,100 -1,008 Descending New York Center
Thu 02:37:09 PM 40.7928 -77.9667 121° Southeast 221 254 3,400 -850 Descending New York Center
Thu 02:38:11 PM 40.8147 -77.9142 61° Northeast 145 167 2,400 -968 Descending New York Center

Login

Don't have an account? Register now (free) for customized features, flight alerts, and more!